Time;durP1;ratioP1;P1;durP2;ratioP2;P2;SDS_P1;SDS_P2;PMS_P1;PMS_P2;Temp;Humidity;BMP_temperature;BMP_pressure;BME280_temperature;BME280_humidity;BME280_pressure;Samples;Min_cycle;Max_cycle;Signal;HPM_P1;HPM_P2
2023/06/10 00:00:48;;;;;;;8.98;7.13;;;;;;;20.95;54.91;101385.94;4861005;29;20174;-82
2023/06/10 00:03:14;;;;;;;10.63;7.63;;;;;;;20.87;55.02;101382.25;4862494;29;20386;-81
2023/06/10 00:05:39;;;;;;;10.18;7.13;;;;;;;20.88;55.18;101389.16;4862670;29;20358;-82
2023/06/10 00:08:10;;;;;;;8.48;7.47;;;;;;;20.78;55.70;101380.53;4862657;29;20025;-81
2023/06/10 00:10:37;;;;;;;10.15;7.78;;;;;;;20.77;55.51;101388.56;4862628;29;20037;-81
2023/06/10 00:13:04;;;;;;;10.23;7.22;;;;;;;20.76;56.04;101386.91;4862465;29;20485;-82
2023/06/10 00:15:29;;;;;;;9.18;7.28;;;;;;;20.74;55.98;101386.19;4862517;29;20038;-82
2023/06/10 00:17:55;;;;;;;10.10;6.97;;;;;;;20.48;55.62;101355.47;4862286;29;20038;-81
2023/06/10 00:20:23;;;;;;;9.75;7.60;;;;;;;20.56;56.06;101370.47;4862439;29;20052;-81
2023/06/10 00:22:49;;;;;;;8.90;7.40;;;;;;;20.59;56.25;101384.09;4862206;29;20113;-82
2023/06/10 00:25:14;;;;;;;10.15;7.90;;;;;;;20.53;56.51;101381.22;4862334;29;20077;-82
2023/06/10 00:27:40;;;;;;;8.23;7.13;;;;;;;20.51;56.66;101394.50;4862153;29;20034;-81
2023/06/10 00:30:06;;;;;;;8.43;7.22;;;;;;;20.32;57.54;101371.78;4862098;29;20161;-81
2023/06/10 00:32:32;;;;;;;10.60;7.68;;;;;;;20.37;57.16;101391.53;4862352;29;20113;-81
2023/06/10 00:34:58;;;;;;;9.35;7.63;;;;;;;20.32;57.34;101391.97;4862060;29;20026;-81
2023/06/10 00:37:23;;;;;;;8.90;7.70;;;;;;;20.30;57.54;101386.88;4861221;29;20443;-81
2023/06/10 00:39:48;;;;;;;9.18;7.30;;;;;;;20.14;57.80;101376.16;4862143;29;20028;-82
2023/06/10 00:42:14;;;;;;;10.32;7.60;;;;;;;20.15;57.94;101388.31;4861888;29;20470;-81
2023/06/10 00:44:39;;;;;;;9.10;7.30;;;;;;;20.03;58.09;101381.59;4861954;29;20029;-82
2023/06/10 00:47:05;;;;;;;10.10;7.35;;;;;;;19.96;58.09;101376.13;4861800;29;20025;-77
2023/06/10 00:49:32;;;;;;;9.63;7.47;;;;;;;19.92;59.02;101385.22;4861698;29;20504;-81
2023/06/10 00:51:58;;;;;;;11.68;7.30;;;;;;;19.96;59.12;101393.63;4861870;29;20104;-79
2023/06/10 00:54:23;;;;;;;10.32;8.48;;;;;;;19.90;59.48;101400.28;4860532;29;20134;-81
2023/06/10 00:56:49;;;;;;;10.75;7.68;;;;;;;19.76;60.19;101395.47;4861767;29;20100;-80
2023/06/10 00:59:15;;;;;;;10.05;8.35;;;;;;;19.74;59.85;101390.38;4861511;29;20021;-81
2023/06/10 01:01:43;;;;;;;9.80;7.93;;;;;;;19.68;60.66;101398.00;4861421;29;20036;-81
2023/06/10 01:04:11;;;;;;;10.60;8.15;;;;;;;19.65;60.31;101399.09;4861693;29;20033;-81
2023/06/10 01:06:47;;;;;;;10.02;7.38;;;;;;;19.28;61.21;101361.53;4861547;29;20025;-81
2023/06/10 01:09:15;;;;;;;9.40;7.90;;;;;;;19.46;62.37;101404.34;4861614;29;20534;-78
2023/06/10 01:11:46;;;;;;;10.27;8.18;;;;;;;19.39;62.00;101408.50;4861507;29;20082;-81
2023/06/10 01:14:14;;;;;;;11.90;8.50;;;;;;;19.33;61.88;101401.19;4861303;29;20146;-80
2023/06/10 01:16:40;;;;;;;10.23;8.65;;;;;;;19.26;63.16;101402.72;4861261;29;20104;-81
2023/06/10 01:19:07;;;;;;;10.90;9.32;;;;;;;19.19;62.78;101403.28;4861229;29;20041;-80
2023/06/10 01:21:32;;;;;;;14.70;8.88;;;;;;;19.11;63.14;101397.09;4861345;29;20486;-81
2023/06/10 01:23:58;;;;;;;10.18;8.63;;;;;;;19.05;64.40;101403.69;4861383;29;20030;-81
2023/06/10 01:26:29;;;;;;;9.93;8.43;;;;;;;18.95;63.80;101400.22;4860168;29;20407;-76
2023/06/10 01:28:59;;;;;;;10.48;9.38;;;;;;;18.96;63.90;101399.25;4860925;29;20030;-78
2023/06/10 01:31:43;;;;;;;10.23;9.13;;;;;;;18.87;64.29;101398.28;4861070;29;20025;-80
2023/06/10 01:34:12;;;;;;;9.90;8.77;;;;;;;18.96;64.89;101412.34;4861425;29;20022;-77
2023/06/10 01:36:40;;;;;;;11.65;8.65;;;;;;;18.90;64.98;101407.69;4861168;29;20489;-80
2023/06/10 01:39:07;;;;;;;11.82;9.65;;;;;;;18.88;64.55;101399.97;4861324;29;20378;-77
2023/06/10 01:41:35;;;;;;;10.35;9.25;;;;;;;18.65;66.08;101382.03;4860835;29;20500;-79
2023/06/10 01:44:00;;;;;;;11.30;9.50;;;;;;;18.69;66.02;101397.34;4860674;29;20427;-77
2023/06/10 01:46:26;;;;;;;11.73;9.75;;;;;;;18.62;66.38;101393.56;4860811;29;20161;-77
2023/06/10 01:48:51;;;;;;;13.82;9.80;;;;;;;18.63;67.23;101405.69;4860315;29;20524;-80
2023/06/10 01:51:17;;;;;;;11.02;9.73;;;;;;;18.47;67.56;101398.34;4860696;29;20041;-80
2023/06/10 01:53:42;;;;;;;11.95;9.82;;;;;;;18.37;68.04;101392.25;4860620;29;20025;-76
2023/06/10 01:56:07;;;;;;;14.77;10.63;;;;;;;18.32;68.45;101397.06;4860693;29;20033;-78
2023/06/10 01:58:32;;;;;;;11.23;10.13;;;;;;;18.36;68.16;101411.50;4859402;29;20026;-81
2023/06/10 02:00:58;;;;;;;11.43;10.00;;;;;;;18.30;68.91;101401.59;4860296;29;20416;-79
2023/06/10 02:03:23;;;;;;;12.27;10.30;;;;;;;18.28;68.32;101401.72;4860367;29;20423;-77
2023/06/10 02:05:49;;;;;;;12.23;10.23;;;;;;;18.22;69.49;101398.81;4860532;29;20032;-78
2023/06/10 02:08:14;;;;;;;12.60;10.20;;;;;;;18.22;69.40;101410.09;4860628;29;20033;-80
2023/06/10 02:10:40;;;;;;;14.88;10.27;;;;;;;18.23;69.44;101416.97;4860482;29;20059;-77
2023/06/10 02:13:06;;;;;;;11.27;10.07;;;;;;;18.16;69.73;101412.41;4859286;29;20088;-78
2023/06/10 02:15:31;;;;;;;14.05;10.93;;;;;;;18.16;70.31;101415.84;4860325;29;20048;-80
2023/06/10 02:17:57;;;;;;;12.40;11.10;;;;;;;18.15;70.08;101426.44;4860357;29;20121;-81
2023/06/10 02:20:23;;;;;;;13.55;10.85;;;;;;;17.92;70.21;101379.59;4860341;29;20034;-75
2023/06/10 02:22:48;;;;;;;14.13;11.07;;;;;;;18.13;70.70;101418.72;4858624;29;20060;-79
2023/06/10 02:25:13;;;;;;;16.20;11.10;;;;;;;18.15;70.71;101427.25;4860110;29;20100;-81
2023/06/10 02:27:39;;;;;;;14.63;10.98;;;;;;;18.14;70.69;101425.63;4860595;29;20022;-81
2023/06/10 02:30:05;;;;;;;12.52;11.15;;;;;;;18.10;71.07;101424.22;4860200;29;20030;-81
2023/06/10 02:32:30;;;;;;;15.25;11.82;;;;;;;18.05;71.09;101432.44;4860110;29;20029;-82
2023/06/10 02:34:56;;;;;;;12.18;10.88;;;;;;;18.07;71.35;101424.47;4858411;29;20048;-81
2023/06/10 02:37:21;;;;;;;12.82;10.98;;;;;;;18.03;71.22;101428.31;4860176;29;20041;-81
2023/06/10 02:39:46;;;;;;;13.27;11.88;;;;;;;17.87;71.75;101400.03;4860005;29;20029;-82
2023/06/10 02:42:12;;;;;;;15.40;11.95;;;;;;;18.01;71.94;101422.41;4859960;29;20030;-81
2023/06/10 02:44:38;;;;;;;14.00;11.18;;;;;;;17.97;71.79;101424.41;4843257;29;20136;-81
2023/06/10 02:47:04;;;;;;;15.63;11.68;;;;;;;17.93;72.18;101423.03;4858867;29;20032;-81
2023/06/10 02:49:29;;;;;;;13.52;12.05;;;;;;;17.93;72.48;101423.03;4859770;29;20054;-82
2023/06/10 02:51:55;;;;;;;13.88;11.95;;;;;;;17.91;72.42;101429.38;4860299;29;20040;-81
2023/06/10 02:54:20;;;;;;;14.18;11.10;;;;;;;17.77;72.80;101404.38;4859904;29;20033;-81
2023/06/10 02:56:47;;;;;;;13.23;11.85;;;;;;;17.80;73.06;101414.59;4858859;29;20386;-81
2023/06/10 02:59:13;;;;;;;14.45;11.43;;;;;;;17.84;73.22;101415.97;4860116;29;20034;-81
2023/06/10 03:01:38;;;;;;;14.90;12.15;;;;;;;17.75;72.78;101407.13;4863089;29;20542;-82
2023/06/10 03:04:05;;;;;;;14.40;12.73;;;;;;;17.80;72.96;101419.81;4863660;29;20033;-81
2023/06/10 03:06:30;;;;;;;17.52;12.32;;;;;;;17.73;73.23;101410.81;4863784;29;20327;-81
2023/06/10 03:08:55;;;;;;;13.65;11.65;;;;;;;17.69;73.57;101412.84;4863634;29;20031;-80
2023/06/10 03:11:21;;;;;;;16.17;12.18;;;;;;;17.66;73.78;101407.84;4863703;29;20515;-81
2023/06/10 03:13:46;;;;;;;14.55;12.05;;;;;;;17.64;73.77;101416.78;4863608;29;20398;-81
2023/06/10 03:16:12;;;;;;;15.20;12.52;;;;;;;17.67;73.79;101422.56;4863443;29;20041;-81
2023/06/10 03:18:37;;;;;;;13.95;12.48;;;;;;;17.60;74.43;101425.81;4862938;29;20022;-79
2023/06/10 03:21:03;;;;;;;15.52;11.98;;;;;;;17.53;74.36;101414.25;4863539;29;20033;-81
2023/06/10 03:23:28;;;;;;;12.65;11.23;;;;;;;17.59;74.37;101427.59;4861999;29;20094;-82
2023/06/10 03:25:54;;;;;;;15.23;12.43;;;;;;;17.52;74.78;101421.25;4863413;29;20476;-80
2023/06/10 03:28:21;;;;;;;14.35;12.68;;;;;;;17.60;74.53;101438.88;4863425;29;20025;-82
2023/06/10 03:30:47;;;;;;;16.60;12.55;;;;;;;17.57;74.99;101439.97;4846404;29;20037;-83
2023/06/10 03:33:13;;;;;;;16.25;12.77;;;;;;;17.43;74.84;101422.84;4863138;29;20068;-82
2023/06/10 03:35:39;;;;;;;15.50;13.30;;;;;;;17.34;75.21;101414.94;4862929;29;20021;-79
2023/06/10 03:38:06;;;;;;;14.50;12.85;;;;;;;17.52;75.28;101449.97;4863242;29;20098;-75
2023/06/10 03:40:31;;;;;;;13.73;12.32;;;;;;;17.43;75.28;101437.69;4863118;29;20030;-82
2023/06/10 03:42:57;;;;;;;16.67;13.23;;;;;;;17.43;75.54;101446.34;4863195;29;20253;-81
2023/06/10 03:45:23;;;;;;;17.08;12.65;;;;;;;17.31;75.99;101439.50;4862868;29;20108;-76
2023/06/10 03:47:48;;;;;;;15.80;13.35;;;;;;;17.33;76.26;101445.44;4862984;29;20030;-76
2023/06/10 03:50:13;;;;;;;14.68;11.85;;;;;;;17.38;75.96;101451.09;4862558;29;20045;-76
2023/06/10 03:52:39;;;;;;;15.23;12.43;;;;;;;17.43;75.83;101455.94;4862901;29;20030;-75
2023/06/10 03:55:06;;;;;;;15.32;12.73;;;;;;;17.37;75.87;101440.78;4862990;29;20036;-76
2023/06/10 03:57:31;;;;;;;14.95;12.65;;;;;;;17.44;75.58;101455.81;4862871;29;20482;-76
2023/06/10 03:59:57;;;;;;;17.27;12.48;;;;;;;17.32;75.74;101433.34;4862794;29;20037;-76
2023/06/10 04:02:23;;;;;;;16.48;12.27;;;;;;;17.39;75.85;101444.91;4862573;29;20030;-77
2023/06/10 04:04:48;;;;;;;15.55;11.95;;;;;;;17.46;75.39;101451.28;4862466;29;20037;-76
2023/06/10 04:07:14;;;;;;;15.60;12.45;;;;;;;17.33;75.45;101431.56;4862606;29;20026;-76
2023/06/10 04:09:39;;;;;;;15.10;12.13;;;;;;;17.40;75.23;101436.16;4862644;29;20026;-76
2023/06/10 04:12:10;;;;;;;13.40;11.65;;;;;;;17.54;74.93;101457.69;4862767;29;20029;-76
2023/06/10 04:14:38;;;;;;;15.23;12.45;;;;;;;17.47;74.99;101433.84;4862655;29;20483;-75
2023/06/10 04:17:08;;;;;;;15.65;11.63;;;;;;;17.48;74.43;101427.66;4862446;29;20030;-76
2023/06/10 04:19:33;;;;;;;13.38;11.10;;;;;;;17.64;73.35;101437.69;4862575;29;20026;-77
2023/06/10 04:22:02;;;;;;;14.02;11.30;;;;;;;17.68;73.11;101441.69;4862513;29;20044;-77
2023/06/10 04:24:27;;;;;;;14.15;11.48;;;;;;;17.84;73.27;101449.94;4862621;29;20040;-76
2023/06/10 04:26:53;;;;;;;14.20;10.73;;;;;;;17.95;73.57;101465.53;4862617;29;20030;-78
2023/06/10 04:29:18;;;;;;;12.85;11.35;;;;;;;18.06;72.39;101468.06;4862436;29;20029;-77
2023/06/10 04:31:46;;;;;;;14.18;10.52;;;;;;;18.18;71.34;101466.22;4862165;29;20041;-78
2023/06/10 04:34:11;;;;;;;14.05;11.82;;;;;;;18.28;71.13;101477.53;4862324;29;20037;-78
2023/06/10 04:36:36;;;;;;;14.23;10.90;;;;;;;18.36;70.00;101474.28;4862462;29;20115;-82
2023/06/10 04:39:02;;;;;;;12.20;10.68;;;;;;;18.43;70.25;101470.19;4862016;29;20034;-78
2023/06/10 04:41:30;;;;;;;13.63;10.40;;;;;;;18.53;69.73;101478.91;4862070;29;20074;-81
2023/06/10 04:43:55;;;;;;;15.35;10.18;;;;;;;18.51;69.23;101486.06;4862094;29;20056;-81
2023/06/10 04:46:20;;;;;;;12.02;10.05;;;;;;;18.41;69.80;101460.81;4862028;29;20057;-79
2023/06/10 04:48:46;;;;;;;17.17;10.35;;;;;;;18.50;69.15;101483.56;4862094;29;20128;-80
2023/06/10 04:51:13;;;;;;;13.30;10.13;;;;;;;18.41;69.46;101460.81;4861984;29;20038;-78
2023/06/10 04:53:38;;;;;;;13.00;9.52;;;;;;;18.66;70.61;101473.44;4861994;29;20449;-79
2023/06/10 04:56:04;;;;;;;11.95;9.95;;;;;;;18.60;69.65;101480.03;4861948;29;20108;-77
2023/06/10 04:58:30;;;;;;;16.58;10.30;;;;;;;18.42;69.35;101452.00;4861906;29;20112;-80
2023/06/10 05:00:55;;;;;;;14.57;9.85;;;;;;;18.69;67.36;101475.81;4861759;29;20081;-82
2023/06/10 05:03:20;;;;;;;12.52;10.43;;;;;;;18.73;67.24;101452.81;4861460;29;20033;-82
2023/06/10 05:05:45;;;;;;;12.73;9.88;;;;;;;19.09;66.26;101474.94;4861567;29;20026;-82
2023/06/10 05:08:11;;;;;;;10.68;9.15;;;;;;;19.33;66.53;101477.97;4861963;29;20081;-82
2023/06/10 05:10:36;;;;;;;14.35;10.30;;;;;;;19.49;65.44;101465.16;4861770;29;20056;-82
2023/06/10 05:13:02;;;;;;;12.00;8.68;;;;;;;19.60;64.46;101461.59;4861817;29;20043;-82
2023/06/10 05:15:28;;;;;;;12.60;9.73;;;;;;;19.79;63.69;101473.84;4861679;29;20017;-82
2023/06/10 05:17:56;;;;;;;13.45;9.55;;;;;;;19.94;63.24;101461.94;4861400;29;20037;-82
2023/06/10 05:20:21;;;;;;;11.07;8.32;;;;;;;20.24;62.39;101453.00;4861504;29;20025;-81
2023/06/10 05:22:46;;;;;;;11.43;8.77;;;;;;;20.78;61.29;101475.03;4859609;29;20443;-82
2023/06/10 05:25:13;;;;;;;12.90;9.10;;;;;;;21.01;58.78;101443.09;4861398;29;20051;-83
2023/06/10 05:27:40;;;;;;;13.05;9.27;;;;;;;21.55;58.19;101475.47;4861420;29;20527;-81
2023/06/10 05:30:07;;;;;;;11.52;9.05;;;;;;;21.87;56.20;101438.06;4860411;29;20069;-81
2023/06/10 05:32:32;;;;;;;12.77;9.23;;;;;;;22.52;53.66;101473.44;4859580;29;20042;-74
2023/06/10 05:34:59;;;;;;;12.13;9.00;;;;;;;23.12;52.55;101472.47;4860973;29;20398;-79
2023/06/10 05:37:25;;;;;;;10.73;8.52;;;;;;;23.82;50.95;101477.25;4861110;29;20482;-82
2023/06/10 05:39:50;;;;;;;10.93;8.73;;;;;;;24.24;49.46;101477.81;4861155;29;20068;-85
2023/06/10 05:42:16;;;;;;;12.85;8.75;;;;;;;24.44;48.64;101456.31;4861047;29;20029;-81
2023/06/10 05:44:41;;;;;;;11.45;8.73;;;;;;;24.78;47.32;101456.81;4861342;29;20045;-83
2023/06/10 05:47:18;;;;;;;10.60;8.10;;;;;;;25.51;47.53;101470.50;4860937;29;20079;-81
2023/06/10 05:49:48;;;;;;;11.95;8.93;;;;;;;25.68;45.09;101478.13;4861508;29;20056;-82
2023/06/10 05:52:13;;;;;;;11.63;8.05;;;;;;;25.85;44.40;101472.69;4860790;29;20048;-84
2023/06/10 05:54:38;;;;;;;11.63;8.18;;;;;;;26.07;43.75;101478.94;4860800;29;20041;-80
2023/06/10 05:57:05;;;;;;;11.93;8.90;;;;;;;26.73;42.61;101477.13;4860694;29;20470;-78
2023/06/10 05:59:30;;;;;;;13.52;7.75;;;;;;;27.18;42.04;101475.19;4860687;29;20073;-79
2023/06/10 06:01:56;;;;;;;12.13;8.32;;;;;;;27.45;40.59;101463.78;4860685;29;20061;-80
2023/06/10 06:04:21;;;;;;;13.00;7.97;;;;;;;27.51;40.26;101449.75;4860086;29;20033;-78
2023/06/10 06:06:46;;;;;;;11.48;8.43;;;;;;;27.60;40.10;101477.78;4860157;29;20026;-81
2023/06/10 06:09:12;;;;;;;9.13;7.85;;;;;;;27.67;39.84;101475.19;4858869;29;20049;-80
2023/06/10 06:11:38;;;;;;;13.40;8.50;;;;;;;27.78;38.97;101485.28;4859083;29;20057;-81
2023/06/10 06:14:03;;;;;;;10.75;7.82;;;;;;;27.67;39.33;101485.81;4860166;29;20065;-81
2023/06/10 06:16:29;;;;;;;12.68;8.23;;;;;;;27.74;39.72;101470.78;4860366;29;20719;-79
2023/06/10 06:18:54;;;;;;;11.70;7.57;;;;;;;28.08;39.37;101480.56;4859911;29;20049;-80
2023/06/10 06:21:19;;;;;;;9.48;7.70;;;;;;;28.66;38.72;101485.56;4854532;29;20025;-77
2023/06/10 06:23:45;;;;;;;11.32;8.02;;;;;;;28.84;37.05;101478.66;4841596;29;20049;-79
2023/06/10 06:26:10;;;;;;;10.93;7.80;;;;;;;28.49;37.26;101440.72;4841858;29;20041;-78
2023/06/10 06:28:35;;;;;;;11.02;7.75;;;;;;;28.86;37.32;101475.78;4841778;29;20403;-78
2023/06/10 06:31:01;;;;;;;10.60;7.22;;;;;;;29.16;37.27;101486.91;4841558;29;20314;-78
2023/06/10 06:33:26;;;;;;;9.75;7.25;;;;;;;29.49;36.54;101464.84;4841553;29;20124;-80
2023/06/10 06:35:52;;;;;;;10.55;7.50;;;;;;;29.53;34.85;101468.75;4840904;29;20057;-78
2023/06/10 06:38:17;;;;;;;11.93;6.68;;;;;;;29.48;37.21;101489.78;4841450;29;20033;-79
2023/06/10 06:40:43;;;;;;;10.60;7.47;;;;;;;30.08;34.48;101485.25;4841746;29;20034;-78
2023/06/10 06:43:08;;;;;;;9.20;7.20;;;;;;;29.85;34.39;101480.38;4841627;29;20034;-79
2023/06/10 06:45:33;;;;;;;11.43;7.55;;;;;;;29.58;34.41;101484.91;4840329;29;20038;-78
2023/06/10 06:47:59;;;;;;;10.57;7.65;;;;;;;29.47;34.03;101491.63;4841522;29;20029;-79
2023/06/10 06:50:25;;;;;;;9.57;7.03;;;;;;;29.16;35.23;101492.22;4839833;29;20045;-78
2023/06/10 06:52:50;;;;;;;11.65;7.43;;;;;;;29.46;35.16;101490.00;4841489;29;20034;-78
2023/06/10 06:55:15;;;;;;;10.85;7.35;;;;;;;29.78;34.29;101485.69;4841442;29;20340;-79
2023/06/10 06:57:41;;;;;;;11.52;6.85;;;;;;;29.95;34.50;101475.44;4841686;29;20183;-74
2023/06/10 07:00:08;;;;;;;11.70;6.53;;;;;;;30.16;35.23;101499.16;4850217;29;20026;-76
2023/06/10 07:02:34;;;;;;;11.20;7.40;;;;;;;31.02;33.35;101488.13;4860765;29;20089;-78
2023/06/10 07:04:59;;;;;;;12.85;7.20;;;;;;;31.54;32.37;101487.94;4859918;29;20469;-79
2023/06/10 07:07:25;;;;;;;10.75;6.63;;;;;;;31.78;31.26;101484.47;4859930;29;20438;-78
2023/06/10 07:09:50;;;;;;;8.82;6.65;;;;;;;31.74;30.91;101491.22;4859859;29;20044;-79
2023/06/10 07:12:16;;;;;;;11.38;6.82;;;;;;;31.76;31.62;101493.72;4860267;29;20064;-79
2023/06/10 07:14:41;;;;;;;10.23;6.50;;;;;;;31.08;32.42;101475.78;4859774;29;20036;-75
2023/06/10 07:17:06;;;;;;;10.75;6.70;;;;;;;31.18;31.98;101500.13;4859953;29;20480;-77
2023/06/10 07:19:32;;;;;;;9.95;6.68;;;;;;;30.92;32.08;101511.78;4859774;29;20033;-77
2023/06/10 07:21:57;;;;;;;9.45;6.20;;;;;;;30.82;32.87;101487.44;4859820;29;20062;-80
2023/06/10 07:24:22;;;;;;;9.40;6.78;;;;;;;31.46;31.86;101505.03;4859659;29;20090;-79
2023/06/10 07:26:48;;;;;;;9.80;6.47;;;;;;;32.05;31.05;101460.13;4859735;29;20081;-79
2023/06/10 07:29:13;;;;;;;9.35;6.22;;;;;;;32.70;29.47;101501.28;4858540;29;20076;-79
2023/06/10 07:31:38;;;;;;;10.68;6.75;;;;;;;32.56;30.06;101493.66;4860773;29;20024;-78
2023/06/10 07:34:03;;;;;;;9.52;6.30;;;;;;;32.42;30.05;101507.19;4859740;29;20036;-77
2023/06/10 07:36:29;;;;;;;10.05;6.38;;;;;;;32.58;31.60;101503.09;4858522;29;20044;-79
2023/06/10 07:38:55;;;;;;;11.65;6.47;;;;;;;32.43;30.56;101506.13;4859793;29;20026;-78
2023/06/10 07:41:20;;;;;;;9.18;6.00;;;;;;;30.76;32.57;101509.59;4859613;29;20034;-78
2023/06/10 07:43:46;;;;;;;10.85;6.65;;;;;;;29.33;34.51;101504.13;4859729;29;20037;-79
2023/06/10 07:46:11;;;;;;;10.18;6.55;;;;;;;28.01;36.32;101503.59;4860758;29;20072;-74
2023/06/10 07:48:36;;;;;;;8.15;6.07;;;;;;;27.26;38.58;101485.66;4845883;29;20502;-79
2023/06/10 07:51:02;;;;;;;10.50;7.22;;;;;;;26.78;39.51;101494.13;4863151;29;20482;-78
2023/06/10 07:53:27;;;;;;;11.55;6.63;;;;;;;26.62;40.38;101518.16;4863039;29;20113;-76
2023/06/10 07:55:53;;;;;;;9.27;6.07;;;;;;;26.44;41.00;101517.72;4862783;29;20364;-78
2023/06/10 07:58:18;;;;;;;8.63;6.10;;;;;;;26.19;41.40;101503.94;4862695;29;20036;-78
2023/06/10 08:00:43;;;;;;;10.27;6.85;;;;;;;26.24;41.41;101512.13;4862975;29;20040;-79
2023/06/10 08:03:09;;;;;;;11.98;6.75;;;;;;;26.02;41.57;101496.16;4862912;29;20109;-76
2023/06/10 08:05:34;;;;;;;11.43;6.72;;;;;;;26.18;43.51;101521.66;4862718;29;20028;-77
2023/06/10 08:08:03;;;;;;;9.80;6.68;;;;;;;26.09;40.72;101517.44;4862634;29;20025;-76
2023/06/10 08:10:28;;;;;;;10.20;6.63;;;;;;;25.90;41.42;101507.38;4862840;29;20116;-79
2023/06/10 08:12:54;;;;;;;10.55;6.40;;;;;;;25.88;41.89;101510.22;4862585;29;20490;-79
2023/06/10 08:15:19;;;;;;;11.32;6.60;;;;;;;25.82;43.15;101510.91;4862661;29;20374;-77
2023/06/10 08:17:44;;;;;;;9.27;6.20;;;;;;;25.96;43.21;101506.66;4862500;29;20476;-80
2023/06/10 08:20:10;;;;;;;11.10;6.60;;;;;;;25.84;42.15;101500.97;4862743;29;20064;-79
2023/06/10 08:22:35;;;;;;;10.50;6.05;;;;;;;25.50;41.84;101472.34;4862567;29;20057;-79
2023/06/10 08:25:01;;;;;;;9.65;6.72;;;;;;;25.80;42.09;101507.63;4861298;29;20075;-80
2023/06/10 08:27:26;;;;;;;8.88;6.20;;;;;;;25.82;41.97;101505.63;4862599;29;20045;-79
2023/06/10 08:29:51;;;;;;;10.55;6.40;;;;;;;25.78;42.28;101496.41;4862366;29;20410;-79
2023/06/10 08:32:17;;;;;;;8.32;6.13;;;;;;;25.95;41.24;101510.28;4862269;29;20041;-80
2023/06/10 08:34:44;;;;;;;9.63;6.53;;;;;;;25.78;41.03;101480.53;4862496;29;20029;-77
2023/06/10 08:37:10;;;;;;;10.65;6.63;;;;;;;25.92;40.42;101500.06;4862263;29;20142;-79
2023/06/10 08:39:38;;;;;;;9.90;6.60;;;;;;;25.57;41.68;101470.63;4862198;29;20116;-80
2023/06/10 08:42:09;;;;;;;10.07;6.50;;;;;;;25.82;42.17;101510.91;4861733;29;20487;-79
2023/06/10 08:44:38;;;;;;;9.40;6.30;;;;;;;25.86;41.26;101499.00;4862001;29;20033;-80
2023/06/10 08:47:12;;;;;;;9.93;6.10;;;;;;;25.87;40.94;101507.75;4862249;29;20026;-79
2023/06/10 08:49:43;;;;;;;8.77;5.88;;;;;;;25.90;40.89;101510.84;4861866;29;20089;-80
2023/06/10 08:52:13;;;;;;;11.00;6.55;;;;;;;25.67;40.80;101481.78;4860881;29;20025;-79
2023/06/10 08:54:43;;;;;;;10.35;5.75;;;;;;;25.99;42.66;101511.59;4862182;29;20497;-78
2023/06/10 08:57:09;;;;;;;9.20;5.80;;;;;;;26.11;41.42;101514.59;4861780;29;20034;-79
2023/06/10 08:59:34;;;;;;;8.35;5.97;;;;;;;25.75;39.90;101472.94;4861594;29;20036;-79
2023/06/10 09:02:02;;;;;;;10.70;6.50;;;;;;;26.15;39.76;101515.88;4861941;29;20484;-79
2023/06/10 09:04:27;;;;;;;10.02;6.07;;;;;;;26.28;39.65;101516.91;4861705;29;20025;-77
2023/06/10 09:06:53;;;;;;;9.30;6.10;;;;;;;26.58;40.24;101512.44;4861803;29;20418;-77
2023/06/10 09:09:20;;;;;;;8.25;5.75;;;;;;;26.65;40.62;101487.84;4861702;29;20032;-78
2023/06/10 09:11:45;;;;;;;9.95;6.15;;;;;;;26.73;39.98;101508.91;4861542;29;20034;-78
2023/06/10 09:14:12;;;;;;;9.32;6.00;;;;;;;26.67;38.77;101481.34;4861812;29;20044;-78
2023/06/10 09:16:38;;;;;;;7.90;5.80;;;;;;;26.82;38.00;101500.66;4861655;29;20041;-80
2023/06/10 09:19:07;;;;;;;9.35;6.03;;;;;;;26.82;38.07;101505.16;4861671;29;20034;-79
2023/06/10 09:21:33;;;;;;;10.45;5.78;;;;;;;26.74;38.20;101494.66;4861332;29;20040;-79
2023/06/10 09:23:59;;;;;;;8.80;6.38;;;;;;;26.86;37.67;101509.91;4861504;29;20474;-78
2023/06/10 09:26:29;;;;;;;8.30;5.80;;;;;;;26.61;38.68;101494.50;4859655;29;20081;-79
2023/06/10 09:29:03;;;;;;;10.82;6.32;;;;;;;26.70;37.38;101499.53;4861583;29;20025;-78
2023/06/10 09:31:29;;;;;;;8.38;5.85;;;;;;;26.84;36.84;101508.44;4844896;29;20367;-78
2023/06/10 09:34:04;;;;;;;9.45;5.57;;;;;;;26.84;37.46;101480.13;4861406;29;20037;-79
2023/06/10 09:36:29;;;;;;;7.43;5.78;;;;;;;27.28;38.69;101505.66;4861172;29;20022;-77
2023/06/10 09:38:56;;;;;;;9.77;6.15;;;;;;;27.28;38.09;101499.53;4859929;29;20372;-77
2023/06/10 09:41:21;;;;;;;9.15;5.95;;;;;;;27.19;37.25;101505.97;4860433;29;20034;-79
2023/06/10 09:43:48;;;;;;;9.05;6.18;;;;;;;27.22;38.65;101509.06;4861873;29;20029;-79
2023/06/10 09:46:18;;;;;;;9.20;6.35;;;;;;;27.09;37.70;101479.78;4861123;29;20025;-78
2023/06/10 09:48:45;;;;;;;10.18;6.32;;;;;;;27.13;37.19;101503.06;4860210;29;20068;-79
2023/06/10 09:51:12;;;;;;;8.68;6.32;;;;;;;27.06;37.91;101496.06;4861736;29;20035;-79
2023/06/10 09:53:38;;;;;;;8.90;6.57;;;;;;;27.21;38.74;101504.78;4861203;29;20398;-79
2023/06/10 09:56:03;;;;;;;10.73;6.80;;;;;;;27.15;38.43;101479.03;4860874;29;20048;-77
2023/06/10 09:58:39;;;;;;;9.23;6.75;;;;;;;27.17;39.64;101479.66;4860914;29;20037;-79
2023/06/10 10:01:12;;;;;;;11.25;6.43;;;;;;;27.20;38.55;101478.44;4859896;29;20347;-80
2023/06/10 10:03:48;;;;;;;9.27;6.20;;;;;;;27.52;38.46;101495.66;4860882;29;20366;-78
2023/06/10 10:06:15;;;;;;;7.80;5.97;;;;;;;27.48;36.82;101497.88;4860631;29;20028;-81
2023/06/10 10:08:40;;;;;;;8.93;5.75;;;;;;;27.52;39.19;101487.69;4860586;29;20029;-78
2023/06/10 10:11:06;;;;;;;9.70;6.70;;;;;;;27.18;38.30;101422.97;4860906;29;20037;-79
2023/06/10 10:13:34;;;;;;;9.60;6.20;;;;;;;27.57;37.84;101480.81;4860722;29;20030;-76
2023/06/10 10:16:04;;;;;;;9.77;6.47;;;;;;;27.62;38.53;101488.19;4860839;29;20158;-77
2023/06/10 10:18:31;;;;;;;11.77;6.65;;;;;;;27.76;38.50;101481.19;4860704;29;20026;-77
2023/06/10 10:21:01;;;;;;;7.82;6.15;;;;;;;27.57;37.26;101454.28;4860438;29;20034;-78
2023/06/10 10:23:38;;;;;;;10.93;6.88;;;;;;;27.59;36.92;101475.31;4860459;29;20431;-77
2023/06/10 10:26:09;;;;;;;9.35;6.03;;;;;;;27.63;38.28;101455.31;4860800;29;20435;-79
2023/06/10 10:28:46;;;;;;;9.40;6.40;;;;;;;27.72;38.00;101473.59;4860657;29;20032;-77
2023/06/10 10:31:18;;;;;;;12.02;6.53;;;;;;;27.94;37.66;101474.38;4860762;29;20029;-78
2023/06/10 10:34:06;;;;;;;10.45;6.40;;;;;;;28.06;37.71;101474.63;4860726;29;20036;-77
2023/06/10 10:36:32;;;;;;;8.98;6.30;;;;;;;28.10;36.66;101470.56;4860382;29;20394;-76
2023/06/10 10:38:58;;;;;;;8.15;6.30;;;;;;;28.13;38.84;101458.75;4859061;29;20033;-77
2023/06/10 10:41:26;;;;;;;9.77;6.60;;;;;;;28.00;37.68;101452.34;4861184;29;20034;-78
2023/06/10 10:43:53;;;;;;;11.93;6.10;;;;;;;28.01;37.23;101447.84;4860511;29;20029;-78
2023/06/10 10:46:19;;;;;;;9.68;6.75;;;;;;;27.91;38.05;101426.13;4860299;29;20113;-78
2023/06/10 10:48:45;;;;;;;9.25;7.00;;;;;;;28.27;38.31;101458.59;4860311;29;20033;-78
2023/06/10 10:51:11;;;;;;;11.15;6.65;;;;;;;28.36;38.74;101456.63;4860202;29;20026;-79
2023/06/10 10:53:40;;;;;;;8.25;6.40;;;;;;;28.29;38.19;101443.31;4860184;29;20113;-80
2023/06/10 10:56:13;;;;;;;8.32;6.20;;;;;;;28.03;38.04;101419.28;4860207;29;20425;-79
2023/06/10 10:58:39;;;;;;;11.20;6.75;;;;;;;28.19;37.51;101450.78;4860173;29;20034;-79
2023/06/10 11:01:14;;;;;;;10.05;6.68;;;;;;;28.21;37.43;101459.38;4860145;29;20526;-77
2023/06/10 11:03:49;;;;;;;10.20;6.85;;;;;;;28.14;38.61;101413.41;4860161;29;20036;-80
2023/06/10 11:06:15;;;;;;;8.45;6.35;;;;;;;28.41;37.03;101446.22;4858821;29;20089;-81
2023/06/10 11:08:40;;;;;;;10.20;6.22;;;;;;;28.38;35.03;101451.13;4860381;29;20109;-81
2023/06/10 11:11:48;;;;;;;7.78;6.07;;;;;;;28.44;36.87;101451.16;4860054;29;20061;-80
2023/06/10 11:14:28;;;;;;;8.90;6.07;;;;;;;28.42;36.31;101447.06;4803506;29;20050;-79